Glen Hope, PA (16645)

11:55 AM EST en Enero 16, 2018 (GMT -0500)
Rosebud | | Change Station

Alt 1450 ft 40.75 °N, 78.54 °W | Updated 8 seconds ago

Nieve
Nieve
29.8 ° F
Sensación térmica 26 ° F
N
3.8
Viento Variable Viento desde SSE
Gusts 6.3 mph

Hoy
Alta -- | Baja -- ° F
--% Posibilidad de precipitaciones
Ayer
Alta -- | Baja -- ° F
Precip. -- pul
Presión 30.34 pul
Visibilidad 1.8 Millas
Nubes Muy nublado 3300 ft
Nublado 4300 ft
Vientos helados 26 ° F
Punto de rocío 26 ° F
Humedad 87%
Precipitaciones 0.00 pul
Espesor de la nieve No disponible.
7:35 AM 5:12 PM
Creciente menguante, 0% visible
SPECI KFIG 161616Z AUTO 00000KT 1 3/4SM -SN BR BKN033 OVC043 M04/M06 A3034 RMK AO2 P0000 T10391056
Presión 30.34 pul
Visibilidad 1.8 Millas
Nubes Muy nublado 3300 ft
Nublado 4300 ft
Vientos helados 26 ° F
Punto de rocío 26 ° F
Humedad 87%
Precipitaciones 0.00 pul
Espesor de la nieve No disponible.
7:35 AM 5:12 PM
Creciente menguante, 0% visible
SPECI KFIG 161616Z AUTO 00000KT 1 3/4SM -SN BR BKN033 OVC043 M04/M06 A3034 RMK AO2 P0000 T10391056

Get Severe Weather Alerts

Thanks for signing up!

Be on the lookout for a verification email in your inbox.

You'll start receiving the daily forecast at 6 AM.

×

10-Day Weather Forecast

Almanac

Astronomía

Jan. 16, 2018 Salida Puesta
Hora real
Crepúsculo civil
Crepúsculo náutico
Crepúsculo astronómico
Luna
Horas de luz
Horas de luz
Tomorrow will be .
, % of the Moon is Illuminated

Extremos de hoy

Máximos del estado Bajos del estado

Community

WunderPhotos

Category 6

Welcome to Category 6. This is the collective home for Weather Underground's featured writeups by Dr. Jeff Masters (right), Bob Henson (left), Chris Burt, and other regular contributors.

Nearby

Calidad del aire

  Calidad del aire Índice AQ Contaminante
Not available.

Grosos de nieve

Estación Profundido Altura

Actividad de terremotos

Ciudad Distance Mag. Tiempo y dato
Magnitud mínima muestra es 2,5.

Temperaturas de aguas costeras

Lugar Temperatura

Stations

Estaciones meteorológicas cercanas

Ubicación de la estación Temp. Vientos helados Punto de rocío Humedad Viento Precip. Alt Actualizado Tipo
                   

Watches & Warnings

There are currently no watches in effect.